createdAt,value
2023-02-06T00:03:28.988Z,-2.80
2023-02-06T00:08:32.000Z,-2.90
2023-02-06T00:13:35.683Z,-2.90
2023-02-06T00:18:38.214Z,-2.90
2023-02-06T00:23:41.064Z,-3.10
2023-02-06T00:28:46.004Z,-1.90
2023-02-06T00:33:48.614Z,-3.30
2023-02-06T00:38:51.194Z,-3.30
2023-02-06T00:43:53.929Z,-3.40
2023-02-06T00:48:56.463Z,-3.30
2023-02-06T00:53:59.021Z,-3.30
2023-02-06T00:59:01.704Z,-3.40
2023-02-06T01:04:04.458Z,-3.30
2023-02-06T01:09:08.019Z,-3.40
2023-02-06T01:14:10.688Z,-3.40
2023-02-06T01:19:13.155Z,-3.10
2023-02-06T01:24:15.678Z,-3.20
2023-02-06T01:29:19.608Z,-3.10
2023-02-06T01:34:22.168Z,-3.10
2023-02-06T01:39:24.904Z,-3.10
2023-02-06T01:44:27.609Z,-3.20
2023-02-06T01:49:38.176Z,-3.30
2023-02-06T01:54:43.432Z,-2.60
2023-02-06T01:59:50.800Z,-3.30
2023-02-06T02:04:53.731Z,-3.50
2023-02-06T02:09:56.287Z,-3.60
2023-02-06T02:14:59.445Z,-3.80
2023-02-06T02:20:40.651Z,-3.50
2023-02-06T02:26:29.770Z,-3.50
2023-02-06T02:31:51.166Z,-3.30
2023-02-06T02:37:05.820Z,-3.20
2023-02-06T02:42:18.211Z,-3.10
2023-02-06T02:47:26.972Z,-3.00
2023-02-06T02:52:30.723Z,-3.00
2023-02-06T02:57:33.327Z,-2.80
2023-02-06T03:02:38.898Z,-3.00
2023-02-06T03:07:56.694Z,-3.00
2023-02-06T03:13:29.937Z,-2.90
2023-02-06T03:19:11.637Z,-3.00
2023-02-06T03:24:21.009Z,-3.10
2023-02-06T03:29:24.735Z,-3.20
2023-02-06T03:34:37.967Z,-3.50
2023-02-06T03:39:40.936Z,-3.70
2023-02-06T03:44:54.373Z,-3.80
2023-02-06T03:50:00.140Z,-4.10
2023-02-06T03:55:08.471Z,-4.00
2023-02-06T04:00:11.875Z,-3.90
2023-02-06T04:05:18.514Z,-4.00
2023-02-06T04:15:24.401Z,-4.00
2023-02-06T04:20:27.048Z,-3.90
2023-02-06T04:25:29.878Z,-4.00
2023-02-06T04:30:32.444Z,-4.00
2023-02-06T04:35:35.445Z,-4.10
2023-02-06T04:40:38.117Z,-5.60
2023-02-06T04:45:42.000Z,-4.30
2023-02-06T04:50:44.492Z,-4.30
2023-02-06T04:55:47.112Z,-4.40
2023-02-06T05:00:50.458Z,-4.40
2023-02-06T05:05:53.466Z,-4.40
2023-02-06T05:10:57.036Z,-4.90
2023-02-06T05:16:06.810Z,-5.00
2023-02-06T05:21:09.410Z,-5.30
2023-02-06T05:31:19.704Z,-5.60
2023-02-06T05:36:23.089Z,-5.70
2023-02-06T05:46:28.961Z,-6.00
2023-02-06T05:56:34.849Z,-6.10
2023-02-06T06:11:44.506Z,-6.10
2023-02-06T06:47:07.091Z,-5.80
2023-02-06T06:57:26.721Z,-5.70
2023-02-06T07:02:29.316Z,-5.10
2023-02-06T07:07:32.434Z,-4.70
2023-02-06T07:12:35.459Z,-4.40
2023-02-06T07:27:44.425Z,-4.10
2023-02-06T07:32:46.965Z,-4.00
2023-02-06T07:42:52.444Z,-3.90
2023-02-06T07:47:59.864Z,-3.60
2023-02-06T07:53:02.685Z,-3.50
2023-02-06T07:58:05.305Z,-3.30
2023-02-06T08:03:09.718Z,-3.20
2023-02-06T08:08:12.413Z,-2.70
2023-02-06T08:13:15.157Z,-2.20
2023-02-06T08:18:17.645Z,-3.00
2023-02-06T08:23:20.888Z,-2.50
2023-02-06T08:28:23.689Z,-2.50
2023-02-06T08:33:27.505Z,-2.30
2023-02-06T08:38:30.365Z,-2.10
2023-02-06T08:43:33.297Z,-1.80
2023-02-06T08:48:35.800Z,-1.80
2023-02-06T08:53:39.233Z,-1.80
2023-02-06T08:58:41.785Z,-1.90
2023-02-06T09:03:45.467Z,-1.70
2023-02-06T09:08:48.067Z,-1.50
2023-02-06T09:13:51.543Z,-1.50
2023-02-06T09:18:55.093Z,-1.30
2023-02-06T09:24:00.524Z,-1.40
2023-02-06T09:29:08.046Z,-1.50
2023-02-06T09:34:12.583Z,-1.40
2023-02-06T09:39:15.373Z,-1.20
2023-02-06T09:44:27.845Z,-1.00
2023-02-06T09:49:37.224Z,-0.70
2023-02-06T09:55:06.933Z,-0.70
2023-02-06T10:00:38.397Z,-0.60
2023-02-06T10:06:09.071Z,-0.60
2023-02-06T10:11:21.551Z,-0.60
2023-02-06T10:16:30.113Z,-0.50
2023-02-06T10:21:52.966Z,-0.30
2023-02-06T10:26:59.079Z,0.00
2023-02-06T10:32:05.753Z,0.00
2023-02-06T10:37:39.751Z,0.00
2023-02-06T10:43:07.021Z,0.00
2023-02-06T10:48:21.498Z,0.00
2023-02-06T10:53:35.049Z,0.10
2023-02-06T10:58:42.668Z,0.40
2023-02-06T11:03:52.472Z,0.70
2023-02-06T11:08:54.964Z,1.20
2023-02-06T11:14:17.906Z,1.90
2023-02-06T11:19:34.348Z,2.30
2023-02-06T11:24:38.890Z,2.70
2023-02-06T11:29:50.948Z,2.80
2023-02-06T11:34:59.115Z,2.70
2023-02-06T11:40:19.985Z,1.80
2023-02-06T11:45:28.482Z,1.70
2023-02-06T11:50:34.706Z,1.40
2023-02-06T11:55:40.070Z,1.20
2023-02-06T12:01:07.095Z,1.50
2023-02-06T12:06:17.032Z,1.30
2023-02-06T12:11:36.145Z,0.80
2023-02-06T12:16:42.042Z,0.70
2023-02-06T12:21:50.574Z,0.90
2023-02-06T12:26:57.368Z,0.80
2023-02-06T12:32:25.029Z,0.50
2023-02-06T12:42:39.269Z,0.40
2023-02-06T12:47:48.687Z,0.40
2023-02-06T12:53:14.575Z,0.20
2023-02-06T12:58:28.349Z,0.00
2023-02-06T13:03:40.182Z,0.00
2023-02-06T13:08:57.565Z,0.10
2023-02-06T13:14:04.725Z,0.50
2023-02-06T13:19:25.043Z,0.60
2023-02-06T13:24:30.364Z,0.70
2023-02-06T13:29:49.155Z,1.00
2023-02-06T13:35:10.597Z,1.00
2023-02-06T13:40:25.596Z,1.10
2023-02-06T13:46:01.835Z,1.00
2023-02-06T13:52:02.712Z,0.70
2023-02-06T13:57:17.161Z,0.40
2023-02-06T14:02:31.122Z,0.20
2023-02-06T14:07:54.483Z,0.20
2023-02-06T14:13:32.305Z,0.00
2023-02-06T14:18:58.752Z,-0.10
2023-02-06T14:24:18.156Z,-0.10
2023-02-06T14:34:49.336Z,-0.10
2023-02-06T14:39:54.859Z,0.00
2023-02-06T14:45:03.838Z,0.00
2023-02-06T14:50:07.807Z,-0.10
2023-02-06T14:55:30.957Z,-0.30
2023-02-06T15:00:33.969Z,-0.70
2023-02-06T15:05:38.485Z,-0.90
2023-02-06T15:10:41.378Z,-1.40
2023-02-06T15:15:54.224Z,-1.50
2023-02-06T15:21:08.881Z,-1.90
2023-02-06T15:26:29.858Z,-2.30
2023-02-06T15:36:38.512Z,-3.10
2023-02-06T15:41:43.201Z,-3.30
2023-02-06T15:46:49.048Z,-3.50
2023-02-06T15:51:55.361Z,-3.60
2023-02-06T15:57:26.521Z,-3.80
2023-02-06T16:02:33.472Z,-4.20
2023-02-06T16:07:36.916Z,-3.90
2023-02-06T16:12:42.384Z,-3.90
2023-02-06T16:27:51.436Z,-4.50
2023-02-06T16:32:57.051Z,-4.30
2023-02-06T16:43:02.633Z,-4.40
2023-02-06T16:48:11.862Z,-4.80
2023-02-06T16:53:23.105Z,-4.90
2023-02-06T17:08:39.219Z,-5.70
2023-02-06T17:18:45.848Z,-6.30
2023-02-06T17:23:50.382Z,-6.30
2023-02-06T17:33:56.427Z,-6.30
2023-02-06T17:39:00.253Z,-6.40
2023-02-06T17:54:10.414Z,-6.70
2023-02-06T18:04:19.811Z,-7.20
2023-02-06T18:09:23.391Z,-7.10
2023-02-06T18:19:46.563Z,-7.40
2023-02-06T18:24:50.890Z,-7.50
2023-02-06T18:34:58.981Z,-7.60
2023-02-06T19:00:16.175Z,-8.20
2023-02-06T19:20:28.913Z,-8.60
2023-02-06T19:35:41.631Z,-8.70
2023-02-06T20:01:06.975Z,-9.00
2023-02-06T20:06:12.136Z,-9.10
2023-02-06T20:11:20.571Z,-9.10
2023-02-06T20:16:26.143Z,-9.30
2023-02-06T20:21:36.486Z,-9.30
2023-02-06T20:26:42.075Z,-9.20
2023-02-06T20:31:44.798Z,-9.40
2023-02-06T20:36:48.566Z,-9.40
2023-02-06T20:41:52.146Z,-9.60
2023-02-06T20:46:54.841Z,-9.40
2023-02-06T20:51:58.701Z,-9.40
2023-02-06T20:57:01.669Z,-9.30
2023-02-06T21:17:13.558Z,-9.50
2023-02-06T21:32:22.226Z,-9.70
2023-02-06T21:52:37.689Z,-10.00
2023-02-06T22:02:43.381Z,-10.00
2023-02-06T22:12:49.744Z,-9.90
2023-02-06T22:17:52.331Z,-10.10
2023-02-06T22:22:55.762Z,-10.10
2023-02-06T22:28:01.062Z,-10.20
2023-02-06T22:43:09.899Z,-10.30
2023-02-06T22:48:12.399Z,-10.30
2023-02-06T22:53:30.466Z,-10.40
2023-02-06T22:58:33.355Z,-10.50
2023-02-06T23:03:36.688Z,-10.40
2023-02-06T23:08:41.013Z,-10.10
2023-02-06T23:18:47.497Z,-10.30
2023-02-06T23:28:53.434Z,-10.20
2023-02-06T23:33:56.452Z,-10.30
2023-02-06T23:39:01.839Z,-10.50
2023-02-06T23:44:07.420Z,-10.50
2023-02-06T23:49:10.630Z,-10.50
2023-02-06T23:54:13.503Z,-10.60
